sensor_id;sensor_type;location;lat;lon;timestamp;P1;durP1;ratioP1;P2;durP2;ratioP2
2039;SDS011;1025;42.686;23.350;2023-02-17T00:01:16;10.43;;;9.47;;
2039;SDS011;1025;42.686;23.350;2023-02-17T00:03:46;11.77;;;10.63;;
2039;SDS011;1025;42.686;23.350;2023-02-17T00:06:14;11.13;;;10.40;;
2039;SDS011;1025;42.686;23.350;2023-02-17T00:08:40;9.17;;;8.47;;
2039;SDS011;1025;42.686;23.350;2023-02-17T00:11:07;12.97;;;10.70;;
2039;SDS011;1025;42.686;23.350;2023-02-17T00:13:33;11.60;;;10.57;;
2039;SDS011;1025;42.686;23.350;2023-02-17T00:16:04;11.73;;;10.73;;
2039;SDS011;1025;42.686;23.350;2023-02-17T00:18:31;13.30;;;11.03;;
2039;SDS011;1025;42.686;23.350;2023-02-17T00:20:59;11.10;;;10.20;;
2039;SDS011;1025;42.686;23.350;2023-02-17T00:23:25;11.30;;;10.20;;
2039;SDS011;1025;42.686;23.350;2023-02-17T00:25:52;13.67;;;12.20;;
2039;SDS011;1025;42.686;23.350;2023-02-17T00:28:18;12.40;;;11.30;;
2039;SDS011;1025;42.686;23.350;2023-02-17T00:30:45;11.50;;;10.60;;
2039;SDS011;1025;42.686;23.350;2023-02-17T00:33:11;15.63;;;11.37;;
2039;SDS011;1025;42.686;23.350;2023-02-17T00:35:38;9.93;;;9.10;;
2039;SDS011;1025;42.686;23.350;2023-02-17T00:38:07;14.90;;;11.37;;
2039;SDS011;1025;42.686;23.350;2023-02-17T00:40:33;11.83;;;10.60;;
2039;SDS011;1025;42.686;23.350;2023-02-17T00:43:00;11.90;;;11.00;;
2039;SDS011;1025;42.686;23.350;2023-02-17T00:45:26;10.40;;;9.60;;
2039;SDS011;1025;42.686;23.350;2023-02-17T00:47:53;11.40;;;10.50;;
2039;SDS011;1025;42.686;23.350;2023-02-17T00:50:19;12.83;;;11.50;;
2039;SDS011;1025;42.686;23.350;2023-02-17T00:52:46;11.63;;;10.47;;
2039;SDS011;1025;42.686;23.350;2023-02-17T00:55:14;12.57;;;11.47;;
2039;SDS011;1025;42.686;23.350;2023-02-17T00:57:40;11.40;;;9.17;;
2039;SDS011;1025;42.686;23.350;2023-02-17T01:00:07;14.83;;;11.60;;
2039;SDS011;1025;42.686;23.350;2023-02-17T01:02:34;11.33;;;10.33;;
2039;SDS011;1025;42.686;23.350;2023-02-17T01:05:01;13.80;;;12.70;;
2039;SDS011;1025;42.686;23.350;2023-02-17T01:07:27;12.03;;;11.00;;
2039;SDS011;1025;42.686;23.350;2023-02-17T01:09:54;14.10;;;12.60;;
2039;SDS011;1025;42.686;23.350;2023-02-17T01:12:22;15.20;;;13.87;;
2039;SDS011;1025;42.686;23.350;2023-02-17T01:14:48;14.37;;;13.07;;
2039;SDS011;1025;42.686;23.350;2023-02-17T01:17:15;18.77;;;14.10;;
2039;SDS011;1025;42.686;23.350;2023-02-17T01:19:41;21.40;;;13.60;;
2039;SDS011;1025;42.686;23.350;2023-02-17T01:22:08;13.17;;;11.87;;
2039;SDS011;1025;42.686;23.350;2023-02-17T01:24:35;15.03;;;13.00;;
2039;SDS011;1025;42.686;23.350;2023-02-17T01:27:02;13.87;;;12.70;;
2039;SDS011;1025;42.686;23.350;2023-02-17T01:29:30;13.37;;;12.10;;
2039;SDS011;1025;42.686;23.350;2023-02-17T01:31:56;13.00;;;10.17;;
2039;SDS011;1025;42.686;23.350;2023-02-17T01:34:23;12.43;;;11.40;;
2039;SDS011;1025;42.686;23.350;2023-02-17T01:36:49;11.60;;;10.73;;
2039;SDS011;1025;42.686;23.350;2023-02-17T01:39:17;25.33;;;13.03;;
2039;SDS011;1025;42.686;23.350;2023-02-17T01:41:43;16.00;;;13.67;;
2039;SDS011;1025;42.686;23.350;2023-02-17T01:44:12;13.20;;;11.80;;
2039;SDS011;1025;42.686;23.350;2023-02-17T01:46:40;13.93;;;12.63;;
2039;SDS011;1025;42.686;23.350;2023-02-17T01:49:18;21.10;;;19.07;;
2039;SDS011;1025;42.686;23.350;2023-02-17T01:51:47;34.53;;;24.67;;
2039;SDS011;1025;42.686;23.350;2023-02-17T01:54:16;33.27;;;29.20;;
2039;SDS011;1025;42.686;23.350;2023-02-17T01:56:45;37.37;;;33.67;;
2039;SDS011;1025;42.686;23.350;2023-02-17T01:59:14;39.30;;;33.70;;
2039;SDS011;1025;42.686;23.350;2023-02-17T02:01:44;36.10;;;32.40;;
2039;SDS011;1025;42.686;23.350;2023-02-17T02:04:10;41.40;;;34.37;;
2039;SDS011;1025;42.686;23.350;2023-02-17T02:06:37;36.60;;;32.70;;
2039;SDS011;1025;42.686;23.350;2023-02-17T02:09:06;34.90;;;31.17;;
2039;SDS011;1025;42.686;23.350;2023-02-17T02:11:34;35.33;;;31.73;;
2039;SDS011;1025;42.686;23.350;2023-02-17T02:14:01;49.60;;;27.47;;
2039;SDS011;1025;42.686;23.350;2023-02-17T02:16:31;30.90;;;27.97;;
2039;SDS011;1025;42.686;23.350;2023-02-17T02:19:03;37.33;;;28.20;;
2039;SDS011;1025;42.686;23.350;2023-02-17T02:21:45;35.33;;;28.63;;
2039;SDS011;1025;42.686;23.350;2023-02-17T02:24:27;33.97;;;29.07;;
2039;SDS011;1025;42.686;23.350;2023-02-17T02:27:08;39.57;;;30.07;;
2039;SDS011;1025;42.686;23.350;2023-02-17T02:29:44;36.53;;;31.60;;
2039;SDS011;1025;42.686;23.350;2023-02-17T02:32:25;32.47;;;29.00;;
2039;SDS011;1025;42.686;23.350;2023-02-17T02:35:01;38.07;;;32.43;;
2039;SDS011;1025;42.686;23.350;2023-02-17T02:37:31;36.20;;;30.53;;
2039;SDS011;1025;42.686;23.350;2023-02-17T02:40:00;38.40;;;31.43;;
2039;SDS011;1025;42.686;23.350;2023-02-17T02:42:28;37.70;;;29.93;;
2039;SDS011;1025;42.686;23.350;2023-02-17T02:44:55;35.53;;;31.17;;
2039;SDS011;1025;42.686;23.350;2023-02-17T02:47:40;32.57;;;27.00;;
2039;SDS011;1025;42.686;23.350;2023-02-17T02:50:07;28.30;;;25.70;;
2039;SDS011;1025;42.686;23.350;2023-02-17T02:52:36;32.37;;;26.07;;
2039;SDS011;1025;42.686;23.350;2023-02-17T02:55:07;32.33;;;29.00;;
2039;SDS011;1025;42.686;23.350;2023-02-17T02:57:38;35.57;;;27.70;;
2039;SDS011;1025;42.686;23.350;2023-02-17T03:00:11;28.80;;;25.30;;
2039;SDS011;1025;42.686;23.350;2023-02-17T03:02:43;32.43;;;28.97;;
2039;SDS011;1025;42.686;23.350;2023-02-17T03:05:11;30.93;;;28.00;;
2039;SDS011;1025;42.686;23.350;2023-02-17T03:07:41;32.70;;;29.40;;
2039;SDS011;1025;42.686;23.350;2023-02-17T03:10:10;34.67;;;29.97;;
2039;SDS011;1025;42.686;23.350;2023-02-17T03:12:37;38.30;;;31.80;;
2039;SDS011;1025;42.686;23.350;2023-02-17T03:15:04;32.37;;;29.00;;
2039;SDS011;1025;42.686;23.350;2023-02-17T03:17:31;29.37;;;26.27;;
2039;SDS011;1025;42.686;23.350;2023-02-17T03:19:59;29.87;;;26.80;;
2039;SDS011;1025;42.686;23.350;2023-02-17T03:22:28;28.73;;;25.40;;
2039;SDS011;1025;42.686;23.350;2023-02-17T03:24:56;40.30;;;26.07;;
2039;SDS011;1025;42.686;23.350;2023-02-17T03:27:24;31.33;;;25.87;;
2039;SDS011;1025;42.686;23.350;2023-02-17T03:29:50;28.90;;;25.80;;
2039;SDS011;1025;42.686;23.350;2023-02-17T03:32:17;25.30;;;22.90;;
2039;SDS011;1025;42.686;23.350;2023-02-17T03:34:43;27.20;;;24.83;;
2039;SDS011;1025;42.686;23.350;2023-02-17T03:37:11;29.93;;;26.63;;
2039;SDS011;1025;42.686;23.350;2023-02-17T03:39:38;30.53;;;25.43;;
2039;SDS011;1025;42.686;23.350;2023-02-17T03:42:05;29.50;;;26.33;;
2039;SDS011;1025;42.686;23.350;2023-02-17T03:44:31;26.87;;;24.23;;
2039;SDS011;1025;42.686;23.350;2023-02-17T03:46:58;29.83;;;21.30;;
2039;SDS011;1025;42.686;23.350;2023-02-17T03:49:24;21.90;;;19.67;;
2039;SDS011;1025;42.686;23.350;2023-02-17T03:51:51;18.40;;;16.57;;
2039;SDS011;1025;42.686;23.350;2023-02-17T03:54:19;20.27;;;18.27;;
2039;SDS011;1025;42.686;23.350;2023-02-17T03:56:46;14.60;;;13.30;;
2039;SDS011;1025;42.686;23.350;2023-02-17T03:59:12;18.67;;;16.97;;
2039;SDS011;1025;42.686;23.350;2023-02-17T04:01:39;17.57;;;16.10;;
2039;SDS011;1025;42.686;23.350;2023-02-17T04:04:05;19.10;;;17.40;;
2039;SDS011;1025;42.686;23.350;2023-02-17T04:06:32;27.10;;;19.37;;
2039;SDS011;1025;42.686;23.350;2023-02-17T04:08:58;19.03;;;17.17;;
2039;SDS011;1025;42.686;23.350;2023-02-17T04:11:26;20.37;;;18.47;;
2039;SDS011;1025;42.686;23.350;2023-02-17T04:13:53;19.77;;;17.90;;
2039;SDS011;1025;42.686;23.350;2023-02-17T04:16:19;19.47;;;17.20;;
2039;SDS011;1025;42.686;23.350;2023-02-17T04:18:46;37.77;;;17.53;;
2039;SDS011;1025;42.686;23.350;2023-02-17T04:21:12;17.23;;;15.47;;
2039;SDS011;1025;42.686;23.350;2023-02-17T04:23:39;16.23;;;12.70;;
2039;SDS011;1025;42.686;23.350;2023-02-17T04:26:06;19.87;;;14.57;;
2039;SDS011;1025;42.686;23.350;2023-02-17T04:28:36;15.83;;;14.60;;
2039;SDS011;1025;42.686;23.350;2023-02-17T04:31:02;17.07;;;15.50;;
2039;SDS011;1025;42.686;23.350;2023-02-17T04:33:30;15.43;;;13.83;;
2039;SDS011;1025;42.686;23.350;2023-02-17T04:35:56;16.10;;;14.30;;
2039;SDS011;1025;42.686;23.350;2023-02-17T04:38:25;14.10;;;12.87;;
2039;SDS011;1025;42.686;23.350;2023-02-17T04:40:52;14.20;;;12.90;;
2039;SDS011;1025;42.686;23.350;2023-02-17T04:43:18;12.87;;;11.23;;
2039;SDS011;1025;42.686;23.350;2023-02-17T04:45:46;12.43;;;11.27;;
2039;SDS011;1025;42.686;23.350;2023-02-17T04:48:13;11.83;;;10.73;;
2039;SDS011;1025;42.686;23.350;2023-02-17T04:50:39;16.40;;;12.73;;
2039;SDS011;1025;42.686;23.350;2023-02-17T04:53:06;12.97;;;11.77;;
2039;SDS011;1025;42.686;23.350;2023-02-17T04:55:32;14.60;;;12.60;;
2039;SDS011;1025;42.686;23.350;2023-02-17T04:57:59;12.93;;;11.73;;
2039;SDS011;1025;42.686;23.350;2023-02-17T05:00:25;12.80;;;11.57;;
2039;SDS011;1025;42.686;23.350;2023-02-17T05:02:53;13.83;;;11.63;;
2039;SDS011;1025;42.686;23.350;2023-02-17T05:05:20;13.77;;;12.67;;
2039;SDS011;1025;42.686;23.350;2023-02-17T05:07:47;12.93;;;11.83;;
2039;SDS011;1025;42.686;23.350;2023-02-17T05:10:14;14.73;;;13.43;;
2039;SDS011;1025;42.686;23.350;2023-02-17T05:12:41;14.27;;;12.80;;
2039;SDS011;1025;42.686;23.350;2023-02-17T05:15:08;9.83;;;8.97;;
2039;SDS011;1025;42.686;23.350;2023-02-17T05:17:34;14.60;;;13.40;;
2039;SDS011;1025;42.686;23.350;2023-02-17T05:20:03;12.77;;;11.80;;
2039;SDS011;1025;42.686;23.350;2023-02-17T05:22:29;14.13;;;12.33;;
2039;SDS011;1025;42.686;23.350;2023-02-17T05:24:56;12.70;;;11.73;;
2039;SDS011;1025;42.686;23.350;2023-02-17T05:27:22;14.20;;;12.87;;
2039;SDS011;1025;42.686;23.350;2023-02-17T05:29:49;15.20;;;13.77;;
2039;SDS011;1025;42.686;23.350;2023-02-17T05:32:16;15.37;;;14.00;;
2039;SDS011;1025;42.686;23.350;2023-02-17T05:34:42;17.07;;;13.80;;
2039;SDS011;1025;42.686;23.350;2023-02-17T05:37:10;14.50;;;13.10;;
2039;SDS011;1025;42.686;23.350;2023-02-17T05:39:37;15.70;;;14.30;;
2039;SDS011;1025;42.686;23.350;2023-02-17T05:42:04;16.97;;;13.27;;
2039;SDS011;1025;42.686;23.350;2023-02-17T05:44:30;14.47;;;12.50;;
2039;SDS011;1025;42.686;23.350;2023-02-17T05:46:57;15.03;;;13.63;;
2039;SDS011;1025;42.686;23.350;2023-02-17T05:49:23;15.57;;;14.27;;
2039;SDS011;1025;42.686;23.350;2023-02-17T05:51:50;14.07;;;12.73;;
2039;SDS011;1025;42.686;23.350;2023-02-17T05:54:18;12.83;;;11.77;;
2039;SDS011;1025;42.686;23.350;2023-02-17T05:56:44;12.60;;;10.70;;
2039;SDS011;1025;42.686;23.350;2023-02-17T05:59:11;19.83;;;18.17;;
2039;SDS011;1025;42.686;23.350;2023-02-17T06:01:37;19.70;;;14.37;;
2039;SDS011;1025;42.686;23.350;2023-02-17T06:04:04;12.60;;;11.53;;
2039;SDS011;1025;42.686;23.350;2023-02-17T06:06:30;13.73;;;12.33;;
2039;SDS011;1025;42.686;23.350;2023-02-17T06:08:57;14.27;;;12.77;;
2039;SDS011;1025;42.686;23.350;2023-02-17T06:11:25;22.23;;;14.57;;
2039;SDS011;1025;42.686;23.350;2023-02-17T06:13:51;17.33;;;13.13;;
2039;SDS011;1025;42.686;23.350;2023-02-17T06:16:18;20.07;;;13.50;;
2039;SDS011;1025;42.686;23.350;2023-02-17T06:18:44;14.13;;;12.93;;
2039;SDS011;1025;42.686;23.350;2023-02-17T06:21:11;23.23;;;14.87;;
2039;SDS011;1025;42.686;23.350;2023-02-17T06:23:37;19.30;;;13.30;;
2039;SDS011;1025;42.686;23.350;2023-02-17T06:26:04;15.73;;;14.20;;
2039;SDS011;1025;42.686;23.350;2023-02-17T06:28:32;14.60;;;13.30;;
2039;SDS011;1025;42.686;23.350;2023-02-17T06:30:58;20.93;;;15.07;;
2039;SDS011;1025;42.686;23.350;2023-02-17T06:33:25;17.77;;;13.40;;
2039;SDS011;1025;42.686;23.350;2023-02-17T06:35:51;15.93;;;14.40;;
2039;SDS011;1025;42.686;23.350;2023-02-17T06:38:18;12.33;;;11.33;;
2039;SDS011;1025;42.686;23.350;2023-02-17T06:40:44;12.60;;;11.50;;
2039;SDS011;1025;42.686;23.350;2023-02-17T06:43:11;14.80;;;13.30;;
2039;SDS011;1025;42.686;23.350;2023-02-17T06:45:39;15.73;;;14.33;;
2039;SDS011;1025;42.686;23.350;2023-02-17T06:48:05;13.57;;;12.53;;
2039;SDS011;1025;42.686;23.350;2023-02-17T06:50:32;13.50;;;12.33;;
2039;SDS011;1025;42.686;23.350;2023-02-17T06:52:59;13.30;;;12.20;;
2039;SDS011;1025;42.686;23.350;2023-02-17T06:55:25;13.40;;;12.00;;
2039;SDS011;1025;42.686;23.350;2023-02-17T06:57:52;17.10;;;15.50;;
2039;SDS011;1025;42.686;23.350;2023-02-17T07:00:19;16.90;;;15.53;;
2039;SDS011;1025;42.686;23.350;2023-02-17T07:02:47;13.77;;;12.33;;
2039;SDS011;1025;42.686;23.350;2023-02-17T07:05:13;15.70;;;14.30;;
2039;SDS011;1025;42.686;23.350;2023-02-17T07:07:40;18.77;;;14.87;;
2039;SDS011;1025;42.686;23.350;2023-02-17T07:10:07;14.90;;;13.30;;
2039;SDS011;1025;42.686;23.350;2023-02-17T07:12:34;17.63;;;16.03;;
2039;SDS011;1025;42.686;23.350;2023-02-17T07:15:00;15.77;;;14.60;;
2039;SDS011;1025;42.686;23.350;2023-02-17T07:17:27;16.60;;;12.83;;
2039;SDS011;1025;42.686;23.350;2023-02-17T07:19:55;12.67;;;11.50;;
2039;SDS011;1025;42.686;23.350;2023-02-17T07:22:21;15.43;;;14.07;;
2039;SDS011;1025;42.686;23.350;2023-02-17T07:24:49;14.03;;;13.00;;
2039;SDS011;1025;42.686;23.350;2023-02-17T07:27:16;15.13;;;13.83;;
2039;SDS011;1025;42.686;23.350;2023-02-17T07:29:42;16.60;;;13.10;;
2039;SDS011;1025;42.686;23.350;2023-02-17T07:32:12;15.60;;;13.97;;
2039;SDS011;1025;42.686;23.350;2023-02-17T07:34:39;18.10;;;14.60;;
2039;SDS011;1025;42.686;23.350;2023-02-17T07:37:07;17.13;;;15.63;;
2039;SDS011;1025;42.686;23.350;2023-02-17T07:39:33;16.43;;;14.67;;
2039;SDS011;1025;42.686;23.350;2023-02-17T07:42:00;21.80;;;15.07;;
2039;SDS011;1025;42.686;23.350;2023-02-17T07:44:29;52.73;;;18.97;;
2039;SDS011;1025;42.686;23.350;2023-02-17T07:46:55;27.57;;;17.10;;
2039;SDS011;1025;42.686;23.350;2023-02-17T07:49:22;13.30;;;12.30;;
2039;SDS011;1025;42.686;23.350;2023-02-17T07:51:48;12.13;;;11.00;;
2039;SDS011;1025;42.686;23.350;2023-02-17T07:54:16;15.03;;;13.47;;
2039;SDS011;1025;42.686;23.350;2023-02-17T07:56:43;14.13;;;12.37;;
2039;SDS011;1025;42.686;23.350;2023-02-17T07:59:09;35.77;;;15.67;;
2039;SDS011;1025;42.686;23.350;2023-02-17T08:01:36;20.07;;;13.80;;
2039;SDS011;1025;42.686;23.350;2023-02-17T08:04:03;22.77;;;14.60;;
2039;SDS011;1025;42.686;23.350;2023-02-17T08:06:29;22.13;;;17.13;;
2039;SDS011;1025;42.686;23.350;2023-02-17T08:08:56;15.03;;;13.70;;
2039;SDS011;1025;42.686;23.350;2023-02-17T08:11:41;17.20;;;14.90;;
2039;SDS011;1025;42.686;23.350;2023-02-17T08:14:27;24.70;;;14.50;;
2039;SDS011;1025;42.686;23.350;2023-02-17T08:16:54;46.80;;;17.93;;
2039;SDS011;1025;42.686;23.350;2023-02-17T08:19:20;13.73;;;12.63;;
2039;SDS011;1025;42.686;23.350;2023-02-17T08:21:47;15.00;;;13.03;;
2039;SDS011;1025;42.686;23.350;2023-02-17T08:24:14;16.63;;;13.93;;
2039;SDS011;1025;42.686;23.350;2023-02-17T08:26:42;27.37;;;15.13;;
2039;SDS011;1025;42.686;23.350;2023-02-17T08:29:08;14.53;;;12.97;;
2039;SDS011;1025;42.686;23.350;2023-02-17T08:31:35;19.73;;;13.97;;
2039;SDS011;1025;42.686;23.350;2023-02-17T08:34:02;14.43;;;12.50;;
2039;SDS011;1025;42.686;23.350;2023-02-17T08:36:29;23.13;;;14.27;;
2039;SDS011;1025;42.686;23.350;2023-02-17T08:38:56;14.73;;;13.23;;
2039;SDS011;1025;42.686;23.350;2023-02-17T08:41:23;17.43;;;14.87;;
2039;SDS011;1025;42.686;23.350;2023-02-17T08:43:51;29.10;;;14.30;;
2039;SDS011;1025;42.686;23.350;2023-02-17T08:46:18;16.40;;;14.77;;
2039;SDS011;1025;42.686;23.350;2023-02-17T08:48:45;31.13;;;13.90;;
2039;SDS011;1025;42.686;23.350;2023-02-17T08:51:12;25.30;;;17.90;;
2039;SDS011;1025;42.686;23.350;2023-02-17T08:53:39;15.50;;;14.13;;
2039;SDS011;1025;42.686;23.350;2023-02-17T08:56:06;16.03;;;14.50;;
2039;SDS011;1025;42.686;23.350;2023-02-17T08:58:32;20.40;;;16.00;;
2039;SDS011;1025;42.686;23.350;2023-02-17T09:01:00;21.10;;;15.87;;
2039;SDS011;1025;42.686;23.350;2023-02-17T09:03:27;30.13;;;14.53;;
2039;SDS011;1025;42.686;23.350;2023-02-17T09:05:54;22.40;;;14.07;;
2039;SDS011;1025;42.686;23.350;2023-02-17T09:08:20;19.53;;;14.90;;
2039;SDS011;1025;42.686;23.350;2023-02-17T09:10:47;23.50;;;16.00;;
2039;SDS011;1025;42.686;23.350;2023-02-17T09:13:14;25.63;;;14.03;;
2039;SDS011;1025;42.686;23.350;2023-02-17T09:15:40;19.57;;;15.30;;
2039;SDS011;1025;42.686;23.350;2023-02-17T09:18:08;18.37;;;14.40;;
2039;SDS011;1025;42.686;23.350;2023-02-17T09:20:35;16.03;;;14.63;;
2039;SDS011;1025;42.686;23.350;2023-02-17T09:23:01;15.40;;;13.20;;
2039;SDS011;1025;42.686;23.350;2023-02-17T09:25:28;13.97;;;12.73;;
2039;SDS011;1025;42.686;23.350;2023-02-17T09:27:55;21.90;;;11.97;;
2039;SDS011;1025;42.686;23.350;2023-02-17T09:30:21;19.53;;;11.73;;
2039;SDS011;1025;42.686;23.350;2023-02-17T09:32:48;13.97;;;12.60;;
2039;SDS011;1025;42.686;23.350;2023-02-17T09:35:16;23.33;;;12.30;;
2039;SDS011;1025;42.686;23.350;2023-02-17T09:37:43;15.00;;;12.03;;
2039;SDS011;1025;42.686;23.350;2023-02-17T09:40:13;10.00;;;7.00;;
2039;SDS011;1025;42.686;23.350;2023-02-17T09:42:40;5.13;;;4.53;;
2039;SDS011;1025;42.686;23.350;2023-02-17T09:45:09;8.00;;;4.13;;
2039;SDS011;1025;42.686;23.350;2023-02-17T09:47:36;4.80;;;4.50;;
2039;SDS011;1025;42.686;23.350;2023-02-17T09:50:05;4.30;;;3.90;;
2039;SDS011;1025;42.686;23.350;2023-02-17T09:52:35;3.83;;;3.53;;
2039;SDS011;1025;42.686;23.350;2023-02-17T09:55:03;4.70;;;4.33;;
2039;SDS011;1025;42.686;23.350;2023-02-17T09:57:32;5.93;;;3.73;;
2039;SDS011;1025;42.686;23.350;2023-02-17T10:00:01;6.53;;;6.03;;
2039;SDS011;1025;42.686;23.350;2023-02-17T10:02:30;4.33;;;3.93;;
2039;SDS011;1025;42.686;23.350;2023-02-17T10:04:59;6.93;;;5.57;;
2039;SDS011;1025;42.686;23.350;2023-02-17T10:07:28;8.10;;;4.80;;
2039;SDS011;1025;42.686;23.350;2023-02-17T10:10:02;4.77;;;4.43;;
2039;SDS011;1025;42.686;23.350;2023-02-17T10:12:30;4.83;;;4.43;;
2039;SDS011;1025;42.686;23.350;2023-02-17T10:15:03;4.37;;;3.73;;
2039;SDS011;1025;42.686;23.350;2023-02-17T10:17:31;14.87;;;4.30;;
2039;SDS011;1025;42.686;23.350;2023-02-17T10:20:02;4.40;;;4.10;;
2039;SDS011;1025;42.686;23.350;2023-02-17T10:22:32;7.63;;;4.50;;
2039;SDS011;1025;42.686;23.350;2023-02-17T10:25:00;10.13;;;3.80;;
2039;SDS011;1025;42.686;23.350;2023-02-17T10:27:31;4.87;;;4.47;;
2039;SDS011;1025;42.686;23.350;2023-02-17T10:30:13;3.83;;;3.37;;
2039;SDS011;1025;42.686;23.350;2023-02-17T10:32:45;3.70;;;3.50;;
2039;SDS011;1025;42.686;23.350;2023-02-17T10:35:14;4.80;;;3.30;;
2039;SDS011;1025;42.686;23.350;2023-02-17T10:37:44;4.83;;;4.37;;
2039;SDS011;1025;42.686;23.350;2023-02-17T10:40:13;4.60;;;4.20;;
2039;SDS011;1025;42.686;23.350;2023-02-17T10:42:40;3.63;;;3.30;;
2039;SDS011;1025;42.686;23.350;2023-02-17T10:45:09;5.67;;;3.97;;
2039;SDS011;1025;42.686;23.350;2023-02-17T10:47:37;4.47;;;4.03;;
2039;SDS011;1025;42.686;23.350;2023-02-17T10:50:04;3.80;;;3.47;;
2039;SDS011;1025;42.686;23.350;2023-02-17T10:52:35;5.20;;;4.77;;
2039;SDS011;1025;42.686;23.350;2023-02-17T10:55:03;7.27;;;4.13;;
2039;SDS011;1025;42.686;23.350;2023-02-17T10:57:34;7.00;;;4.70;;
2039;SDS011;1025;42.686;23.350;2023-02-17T11:00:03;4.97;;;4.57;;
2039;SDS011;1025;42.686;23.350;2023-02-17T11:02:32;5.27;;;3.87;;
2039;SDS011;1025;42.686;23.350;2023-02-17T11:04:59;5.00;;;3.50;;
2039;SDS011;1025;42.686;23.350;2023-02-17T11:07:30;10.10;;;5.10;;
2039;SDS011;1025;42.686;23.350;2023-02-17T11:09:58;3.00;;;2.80;;
2039;SDS011;1025;42.686;23.350;2023-02-17T11:12:26;3.80;;;3.53;;
2039;SDS011;1025;42.686;23.350;2023-02-17T11:14:55;7.27;;;3.40;;
2039;SDS011;1025;42.686;23.350;2023-02-17T11:17:22;6.10;;;3.20;;
2039;SDS011;1025;42.686;23.350;2023-02-17T11:19:54;4.63;;;3.93;;
2039;SDS011;1025;42.686;23.350;2023-02-17T11:22:25;8.60;;;4.70;;
2039;SDS011;1025;42.686;23.350;2023-02-17T11:24:56;3.67;;;3.37;;
2039;SDS011;1025;42.686;23.350;2023-02-17T11:27:23;3.30;;;3.10;;
2039;SDS011;1025;42.686;23.350;2023-02-17T11:29:50;22.97;;;4.93;;
2039;SDS011;1025;42.686;23.350;2023-02-17T11:32:18;2.53;;;2.33;;
2039;SDS011;1025;42.686;23.350;2023-02-17T11:34:55;3.70;;;3.40;;
2039;SDS011;1025;42.686;23.350;2023-02-17T11:37:23;2.90;;;2.80;;
2039;SDS011;1025;42.686;23.350;2023-02-17T11:39:52;5.10;;;4.00;;
2039;SDS011;1025;42.686;23.350;2023-02-17T11:42:19;4.53;;;3.50;;
2039;SDS011;1025;42.686;23.350;2023-02-17T11:44:46;3.57;;;3.37;;
2039;SDS011;1025;42.686;23.350;2023-02-17T11:47:15;2.97;;;2.80;;
2039;SDS011;1025;42.686;23.350;2023-02-17T11:52:40;3.20;;;2.77;;
2039;SDS011;1025;42.686;23.350;2023-02-17T11:55:12;3.60;;;3.40;;
2039;SDS011;1025;42.686;23.350;2023-02-17T11:57:41;4.53;;;4.23;;
2039;SDS011;1025;42.686;23.350;2023-02-17T12:00:14;3.10;;;2.93;;
2039;SDS011;1025;42.686;23.350;2023-02-17T12:02:50;3.37;;;3.20;;
2039;SDS011;1025;42.686;23.350;2023-02-17T12:05:21;3.57;;;3.27;;
2039;SDS011;1025;42.686;23.350;2023-02-17T12:07:54;3.57;;;3.37;;
2039;SDS011;1025;42.686;23.350;2023-02-17T12:10:28;4.57;;;4.27;;
2039;SDS011;1025;42.686;23.350;2023-02-17T12:12:58;3.30;;;3.10;;
2039;SDS011;1025;42.686;23.350;2023-02-17T12:15:33;3.30;;;3.10;;
2039;SDS011;1025;42.686;23.350;2023-02-17T12:18:04;4.40;;;4.10;;
2039;SDS011;1025;42.686;23.350;2023-02-17T12:20:38;3.27;;;2.83;;
2039;SDS011;1025;42.686;23.350;2023-02-17T12:23:15;4.00;;;3.70;;
2039;SDS011;1025;42.686;23.350;2023-02-17T12:25:48;3.13;;;2.93;;
2039;SDS011;1025;42.686;23.350;2023-02-17T12:28:26;2.87;;;2.67;;
2039;SDS011;1025;42.686;23.350;2023-02-17T12:30:57;3.10;;;3.00;;
2039;SDS011;1025;42.686;23.350;2023-02-17T12:33:33;2.80;;;2.70;;
2039;SDS011;1025;42.686;23.350;2023-02-17T12:36:02;2.97;;;2.77;;
2039;SDS011;1025;42.686;23.350;2023-02-17T12:38:32;4.40;;;4.00;;
2039;SDS011;1025;42.686;23.350;2023-02-17T12:41:00;8.07;;;3.63;;
2039;SDS011;1025;42.686;23.350;2023-02-17T12:43:31;6.10;;;3.50;;
2039;SDS011;1025;42.686;23.350;2023-02-17T12:46:01;5.80;;;3.40;;
2039;SDS011;1025;42.686;23.350;2023-02-17T12:48:30;2.93;;;2.73;;
2039;SDS011;1025;42.686;23.350;2023-02-17T12:51:01;2.80;;;2.63;;
2039;SDS011;1025;42.686;23.350;2023-02-17T12:53:45;4.67;;;4.27;;
2039;SDS011;1025;42.686;23.350;2023-02-17T12:59:04;3.90;;;3.60;;
2039;SDS011;1025;42.686;23.350;2023-02-17T13:01:35;5.33;;;3.43;;
2039;SDS011;1025;42.686;23.350;2023-02-17T13:04:03;4.17;;;3.80;;
2039;SDS011;1025;42.686;23.350;2023-02-17T13:06:31;10.90;;;5.90;;
2039;SDS011;1025;42.686;23.350;2023-02-17T13:09:04;4.30;;;2.57;;
2039;SDS011;1025;42.686;23.350;2023-02-17T13:11:34;4.00;;;3.80;;
2039;SDS011;1025;42.686;23.350;2023-02-17T13:14:08;4.03;;;3.83;;
2039;SDS011;1025;42.686;23.350;2023-02-17T13:16:41;3.70;;;3.50;;
2039;SDS011;1025;42.686;23.350;2023-02-17T13:19:07;6.40;;;3.93;;
2039;SDS011;1025;42.686;23.350;2023-02-17T13:21:34;3.03;;;2.83;;
2039;SDS011;1025;42.686;23.350;2023-02-17T13:24:03;3.70;;;3.40;;
2039;SDS011;1025;42.686;23.350;2023-02-17T13:26:31;4.40;;;4.00;;
2039;SDS011;1025;42.686;23.350;2023-02-17T13:29:07;5.00;;;4.60;;
2039;SDS011;1025;42.686;23.350;2023-02-17T13:31:43;4.37;;;4.07;;
2039;SDS011;1025;42.686;23.350;2023-02-17T13:34:10;2.53;;;2.33;;
2039;SDS011;1025;42.686;23.350;2023-02-17T13:36:36;4.00;;;3.67;;
2039;SDS011;1025;42.686;23.350;2023-02-17T13:39:27;5.20;;;3.83;;
2039;SDS011;1025;42.686;23.350;2023-02-17T13:41:51;3.37;;;3.13;;
2039;SDS011;1025;42.686;23.350;2023-02-17T13:44:23;6.13;;;4.03;;
2039;SDS011;1025;42.686;23.350;2023-02-17T13:46:51;3.77;;;3.57;;
2039;SDS011;1025;42.686;23.350;2023-02-17T13:49:20;4.20;;;3.90;;
2039;SDS011;1025;42.686;23.350;2023-02-17T13:51:47;3.40;;;3.20;;
2039;SDS011;1025;42.686;23.350;2023-02-17T13:54:18;3.93;;;3.60;;
2039;SDS011;1025;42.686;23.350;2023-02-17T13:56:48;2.50;;;2.40;;
2039;SDS011;1025;42.686;23.350;2023-02-17T13:59:15;3.70;;;2.83;;
2039;SDS011;1025;42.686;23.350;2023-02-17T14:01:42;3.33;;;3.03;;
2039;SDS011;1025;42.686;23.350;2023-02-17T14:04:19;3.90;;;3.47;;
2039;SDS011;1025;42.686;23.350;2023-02-17T14:06:46;2.87;;;2.67;;
2039;SDS011;1025;42.686;23.350;2023-02-17T14:09:20;3.83;;;3.53;;
2039;SDS011;1025;42.686;23.350;2023-02-17T14:11:47;12.37;;;2.57;;
2039;SDS011;1025;42.686;23.350;2023-02-17T14:14:14;3.20;;;2.90;;
2039;SDS011;1025;42.686;23.350;2023-02-17T14:16:40;3.40;;;3.20;;
2039;SDS011;1025;42.686;23.350;2023-02-17T14:19:09;3.37;;;3.10;;
2039;SDS011;1025;42.686;23.350;2023-02-17T14:21:36;3.23;;;3.03;;
2039;SDS011;1025;42.686;23.350;2023-02-17T14:24:04;3.50;;;3.27;;
2039;SDS011;1025;42.686;23.350;2023-02-17T14:26:34;4.57;;;3.43;;
2039;SDS011;1025;42.686;23.350;2023-02-17T14:29:02;3.73;;;3.53;;
2039;SDS011;1025;42.686;23.350;2023-02-17T14:31:35;4.30;;;3.90;;
2039;SDS011;1025;42.686;23.350;2023-02-17T14:34:02;19.23;;;4.43;;
2039;SDS011;1025;42.686;23.350;2023-02-17T14:36:32;5.30;;;3.10;;
2039;SDS011;1025;42.686;23.350;2023-02-17T14:38:59;3.70;;;3.50;;
2039;SDS011;1025;42.686;23.350;2023-02-17T14:41:26;5.73;;;5.23;;
2039;SDS011;1025;42.686;23.350;2023-02-17T14:43:55;3.73;;;3.53;;
2039;SDS011;1025;42.686;23.350;2023-02-17T14:46:22;3.57;;;3.33;;
2039;SDS011;1025;42.686;23.350;2023-02-17T14:48:50;5.17;;;4.30;;
2039;SDS011;1025;42.686;23.350;2023-02-17T14:51:17;4.70;;;3.87;;
2039;SDS011;1025;42.686;23.350;2023-02-17T14:53:44;5.60;;;3.80;;
2039;SDS011;1025;42.686;23.350;2023-02-17T14:56:14;4.03;;;3.73;;